Decoded Metar for KFFM (FERGUS FALLS in MN, USA) (IATA:FFM) | Meteo·Mobile Aviation Weather
aviador You're here:

KFFM Decoded Metar

FERGUS FALLS in MN, USA
Report Time2018-11-18 20:15:00
UTC Time2018-11-18 20:29:34
Flight Rules vfr VFR
Wind210° at 08 kt
W.Decomp.*RWY 17: 6.6 kt HW 4.6 kt RCW
RWY 13: 2.1 kt HW 7.7 kt RCW
W.Rank210° ranks 32
Current wind is above 210° avg. (7.5)
Visibility9999 m
Phenomena:N/A
Clouds:N/A
Expected CloudBase > 1,200 ft AGL from Temp-Dew spread
CeilingNone
Temp-4°C (ISA -17)
Dew Point-7°C (80% RH)
AAT-9.7°C
QNH1016 hPa
Density Alt-912 ft
Elevation1,184 ft
Report Wrong Elevation
Raw Report
KFFM 182015Z AUTO 21008KT 10SM CLR M04/M07 A3001 RMK AO2=

Extra information for KFFM:More info

Metar Taf Metar & Taf Last 4 Metars F.Rules Stats Wind Profile Meteogram Temp Stats Airport Information Weather charts Add Link Nearby VenuesMetar ALERT Operation Metar Decoded Social comments

AIRNAV info for KFFM